createdAt,value
2022-08-19T00:00:52.182Z,89.42
2022-08-19T00:01:53.496Z,89.32
2022-08-19T00:02:52.426Z,89.22
2022-08-19T00:03:52.136Z,89.12
2022-08-19T00:04:52.278Z,89.12
2022-08-19T00:05:52.131Z,89.22
2022-08-19T00:06:52.128Z,89.42
2022-08-19T00:07:52.084Z,89.66
2022-08-19T00:08:52.076Z,89.76
2022-08-19T00:09:52.064Z,89.96
2022-08-19T00:10:52.051Z,89.96
2022-08-19T00:11:52.062Z,89.86
2022-08-19T00:12:52.176Z,90.06
2022-08-19T00:13:52.024Z,90.26
2022-08-19T00:14:51.995Z,90.36
2022-08-19T00:15:52.023Z,90.46
2022-08-19T00:16:51.997Z,90.46
2022-08-19T00:17:51.963Z,90.32
2022-08-19T00:18:51.928Z,90.22
2022-08-19T00:19:51.936Z,90.22
2022-08-19T00:20:51.910Z,90.22
2022-08-19T00:21:51.934Z,90.32
2022-08-19T00:22:52.024Z,90.32
2022-08-19T00:23:51.869Z,90.22
2022-08-19T00:24:51.855Z,90.22
2022-08-19T00:25:51.837Z,90.22
2022-08-19T00:26:51.879Z,90.22
2022-08-19T00:27:51.837Z,90.22
2022-08-19T00:28:51.823Z,90.42
2022-08-19T00:29:52.789Z,90.52
2022-08-19T00:30:51.917Z,90.72
2022-08-19T00:31:51.760Z,90.72
2022-08-19T00:32:52.025Z,90.72
2022-08-19T00:33:51.745Z,90.72
2022-08-19T00:34:51.732Z,90.72
2022-08-19T00:35:56.192Z,90.72
2022-08-19T00:36:51.780Z,90.62
2022-08-19T00:37:51.738Z,90.32
2022-08-19T00:38:51.688Z,89.92
2022-08-19T00:39:51.726Z,89.92
2022-08-19T00:40:51.664Z,89.92
2022-08-19T00:41:51.629Z,89.92
2022-08-19T00:42:51.773Z,89.92
2022-08-19T00:43:51.629Z,89.92
2022-08-19T00:44:51.591Z,89.92
2022-08-19T00:45:51.629Z,89.92
2022-08-19T00:46:58.200Z,90.22
2022-08-19T00:47:51.601Z,90.62
2022-08-19T00:48:51.535Z,90.72
2022-08-19T00:49:51.740Z,90.92
2022-08-19T00:50:52.165Z,91.02
2022-08-19T00:51:52.311Z,90.92
2022-08-19T00:52:51.620Z,91.12
2022-08-19T00:53:51.491Z,91.42
2022-08-19T00:54:52.731Z,91.62
2022-08-19T00:55:51.562Z,91.62
2022-08-19T00:56:51.424Z,91.62
2022-08-19T00:57:51.419Z,91.72
2022-08-19T00:58:51.416Z,91.92
2022-08-19T00:59:56.503Z,91.97
2022-08-19T01:00:51.389Z,91.97
2022-08-19T01:01:51.399Z,92.07
2022-08-19T01:02:51.392Z,92.16
2022-08-19T01:03:57.499Z,92.16
2022-08-19T01:04:51.370Z,92.27
2022-08-19T01:05:52.769Z,92.27
2022-08-19T01:06:52.221Z,92.16
2022-08-19T01:07:51.310Z,91.92
2022-08-19T01:08:51.281Z,91.82
2022-08-19T01:09:51.273Z,91.72
2022-08-19T01:10:51.270Z,91.62
2022-08-19T01:11:51.245Z,91.52
2022-08-19T01:12:51.298Z,91.42
2022-08-19T01:13:51.238Z,91.52
2022-08-19T01:14:51.214Z,91.62
2022-08-19T01:15:51.215Z,91.62
2022-08-19T01:16:51.174Z,91.72
2022-08-19T01:17:51.155Z,91.72
2022-08-19T01:18:51.152Z,91.82
2022-08-19T01:19:51.125Z,91.82
2022-08-19T01:20:51.122Z,91.86
2022-08-19T01:21:51.142Z,92.07
2022-08-19T01:22:51.351Z,92.07
2022-08-19T01:23:51.077Z,92.27
2022-08-19T01:24:51.102Z,92.36
2022-08-19T01:25:51.142Z,92.47
2022-08-19T01:26:51.053Z,92.57
2022-08-19T01:27:53.382Z,92.67
2022-08-19T01:28:51.826Z,92.57
2022-08-19T01:29:51.004Z,92.57
2022-08-19T01:30:51.336Z,92.42
2022-08-19T01:31:51.001Z,92.32
2022-08-19T01:32:51.281Z,92.22
2022-08-19T01:33:50.961Z,92.22
2022-08-19T01:34:50.918Z,92.22
2022-08-19T01:35:50.917Z,92.22
2022-08-19T01:36:50.901Z,92.12
2022-08-19T01:37:50.883Z,92.22
2022-08-19T01:38:50.876Z,92.32
2022-08-19T01:39:50.882Z,92.32
2022-08-19T01:40:50.838Z,92.32
2022-08-19T01:41:50.876Z,92.32
2022-08-19T01:42:52.489Z,92.22
2022-08-19T01:44:03.805Z,92.32
2022-08-19T01:44:50.799Z,92.32
2022-08-19T01:45:50.858Z,92.42
2022-08-19T01:46:52.243Z,92.42
2022-08-19T01:48:01.130Z,92.42
2022-08-19T01:48:50.751Z,92.42
2022-08-19T01:49:50.748Z,92.52
2022-08-19T01:50:50.700Z,92.52
2022-08-19T01:51:50.734Z,92.67
2022-08-19T01:53:06.389Z,92.86
2022-08-19T01:53:51.600Z,92.86
2022-08-19T01:54:50.675Z,92.97
2022-08-19T01:55:50.661Z,93.07
2022-08-19T01:56:50.622Z,93.07
2022-08-19T01:57:50.659Z,93.17
2022-08-19T01:58:50.628Z,93.27
2022-08-19T01:59:50.635Z,93.37
2022-08-19T02:00:50.581Z,93.37
2022-08-19T02:01:50.614Z,93.37
2022-08-19T02:02:50.550Z,93.47
2022-08-19T02:03:50.546Z,93.47
2022-08-19T02:04:50.542Z,93.37
2022-08-19T02:05:50.560Z,93.37
2022-08-19T02:06:50.518Z,93.27
2022-08-19T02:07:50.497Z,93.27
2022-08-19T02:08:51.322Z,93.27
2022-08-19T02:09:50.489Z,93.27
2022-08-19T02:10:50.449Z,93.27
2022-08-19T02:11:50.433Z,93.17
2022-08-19T02:12:50.440Z,93.07
2022-08-19T02:13:50.431Z,93.17
2022-08-19T02:14:50.390Z,93.17
2022-08-19T02:15:50.388Z,93.17
2022-08-19T02:16:50.390Z,93.17
2022-08-19T02:17:50.369Z,93.27
2022-08-19T02:18:50.383Z,93.27
2022-08-19T02:19:50.388Z,93.37
2022-08-19T02:20:50.302Z,93.47
2022-08-19T02:21:50.309Z,93.57
2022-08-19T02:22:50.295Z,93.67
2022-08-19T02:23:51.084Z,93.77
2022-08-19T02:24:50.272Z,93.77
2022-08-19T02:25:50.247Z,93.77
2022-08-19T02:26:50.226Z,93.77
2022-08-19T02:27:50.220Z,93.87
2022-08-19T02:28:50.239Z,93.77
2022-08-19T02:29:50.233Z,93.77
2022-08-19T02:30:50.188Z,93.67
2022-08-19T02:31:50.183Z,93.57
2022-08-19T02:32:50.162Z,93.47
2022-08-19T02:33:50.138Z,93.47
2022-08-19T02:34:50.168Z,93.47
2022-08-19T02:35:50.106Z,93.37
2022-08-19T02:36:51.789Z,93.27
2022-08-19T02:37:50.128Z,93.27
2022-08-19T02:38:54.404Z,93.17
2022-08-19T02:39:50.144Z,93.17
2022-08-19T02:40:50.749Z,93.17
2022-08-19T02:41:50.037Z,93.17
2022-08-19T02:42:50.047Z,93.27
2022-08-19T02:44:30.245Z,93.37
2022-08-19T02:44:49.995Z,93.57
2022-08-19T02:45:49.985Z,93.81
2022-08-19T02:46:49.961Z,94.01
2022-08-19T02:47:49.973Z,94.12
2022-08-19T02:48:49.935Z,94.42
2022-08-19T02:49:49.925Z,94.62
2022-08-19T02:50:53.153Z,94.62
2022-08-19T02:51:49.923Z,94.62
2022-08-19T02:52:49.915Z,94.71
2022-08-19T02:53:49.885Z,94.82
2022-08-19T02:54:49.863Z,94.92
2022-08-19T02:55:49.875Z,94.92
2022-08-19T02:56:49.851Z,94.92
2022-08-19T02:57:49.820Z,94.92
2022-08-19T02:58:49.824Z,95.01
2022-08-19T02:59:49.810Z,95.12
2022-08-19T03:00:49.777Z,95.12
2022-08-19T03:01:49.826Z,95.12
2022-08-19T03:02:49.843Z,95.12
2022-08-19T03:03:49.746Z,95.12
2022-08-19T03:04:49.732Z,95.12
2022-08-19T03:05:56.804Z,95.12
2022-08-19T03:06:49.740Z,95.12
2022-08-19T03:07:49.689Z,95.01
2022-08-19T03:08:50.630Z,95.01
2022-08-19T03:09:49.671Z,95.01
2022-08-19T03:10:49.648Z,95.01
2022-08-19T03:11:49.901Z,94.82
2022-08-19T03:12:50.601Z,94.71
2022-08-19T03:13:49.606Z,94.71
2022-08-19T03:14:49.605Z,94.71
2022-08-19T03:15:49.589Z,94.82
2022-08-19T03:16:49.594Z,94.82
2022-08-19T03:17:50.322Z,94.82
2022-08-19T03:18:49.591Z,94.92
2022-08-19T03:19:49.541Z,94.92
2022-08-19T03:20:49.515Z,94.92
2022-08-19T03:21:49.523Z,94.92
2022-08-19T03:22:49.487Z,94.92
2022-08-19T03:23:49.468Z,94.92
2022-08-19T03:24:49.488Z,94.92
2022-08-19T03:26:03.833Z,94.67
2022-08-19T03:26:49.517Z,94.47
2022-08-19T03:27:49.412Z,94.37
2022-08-19T03:28:51.397Z,94.17
2022-08-19T03:29:49.459Z,94.07
2022-08-19T03:30:50.329Z,93.97
2022-08-19T03:31:52.609Z,93.97
2022-08-19T03:32:51.399Z,93.87
2022-08-19T03:33:49.337Z,93.87
2022-08-19T03:34:49.365Z,93.87
2022-08-19T03:35:49.307Z,93.87
2022-08-19T03:36:49.304Z,93.87
2022-08-19T03:37:49.307Z,93.87
2022-08-19T03:38:49.273Z,93.87
2022-08-19T03:39:49.372Z,93.87
2022-08-19T03:40:49.259Z,93.87
2022-08-19T03:41:49.237Z,93.77
2022-08-19T03:42:49.707Z,93.77
2022-08-19T03:43:49.217Z,93.77
2022-08-19T03:44:49.218Z,93.77
2022-08-19T03:45:49.185Z,93.77
2022-08-19T03:46:49.183Z,93.77
2022-08-19T03:47:49.170Z,93.77
2022-08-19T03:48:49.180Z,93.77
2022-08-19T03:49:49.131Z,93.87
2022-08-19T03:50:49.159Z,93.97
2022-08-19T03:51:49.092Z,94.07
2022-08-19T03:52:49.095Z,94.07
2022-08-19T03:53:49.073Z,94.17
2022-08-19T03:54:49.146Z,94.17
2022-08-19T03:55:49.046Z,94.17
2022-08-19T03:56:49.035Z,94.17
2022-08-19T03:57:49.073Z,94.07
2022-08-19T03:58:48.999Z,94.07
2022-08-19T03:59:48.986Z,93.97
2022-08-19T04:00:49.022Z,94.01
2022-08-19T04:01:48.952Z,94.12
2022-08-19T04:02:58.030Z,94.21
2022-08-19T04:03:48.950Z,94.12
2022-08-19T04:04:48.924Z,94.31
2022-08-19T04:05:48.912Z,94.31
2022-08-19T04:06:48.915Z,94.42
2022-08-19T04:07:48.907Z,94.51
2022-08-19T04:08:48.872Z,94.71
2022-08-19T04:09:48.872Z,94.71
2022-08-19T04:10:48.843Z,94.71
2022-08-19T04:11:48.858Z,94.82
2022-08-19T04:12:48.897Z,94.82
2022-08-19T04:13:48.798Z,94.92
2022-08-19T04:14:48.848Z,95.01
2022-08-19T04:15:48.779Z,95.01
2022-08-19T04:16:48.783Z,95.06
2022-08-19T04:17:48.796Z,95.16
2022-08-19T04:18:48.835Z,95.36
2022-08-19T04:19:48.761Z,95.42
2022-08-19T04:20:48.718Z,95.42
2022-08-19T04:21:48.703Z,95.42
2022-08-19T04:22:48.689Z,95.21
2022-08-19T04:23:48.682Z,95.12
2022-08-19T04:24:48.685Z,95.01
2022-08-19T04:25:48.644Z,95.01
2022-08-19T04:26:48.656Z,95.01
2022-08-19T04:27:48.635Z,94.82
2022-08-19T04:28:48.632Z,94.71
2022-08-19T04:29:48.612Z,94.62
2022-08-19T04:30:48.604Z,94.51
2022-08-19T04:31:48.607Z,94.31
2022-08-19T04:32:48.596Z,94.31
2022-08-19T04:33:48.567Z,94.21
2022-08-19T04:35:01.294Z,94.21
2022-08-19T04:35:48.533Z,94.12
2022-08-19T04:36:48.595Z,94.12
2022-08-19T04:37:48.500Z,94.12
2022-08-19T04:38:48.481Z,94.12
2022-08-19T04:39:48.591Z,94.31
2022-08-19T04:40:48.475Z,94.31
2022-08-19T04:41:48.438Z,94.42
2022-08-19T04:42:48.425Z,94.42
2022-08-19T04:43:48.413Z,94.51
2022-08-19T04:44:48.414Z,94.62
2022-08-19T04:45:48.393Z,94.62
2022-08-19T04:46:51.604Z,94.62
2022-08-19T04:47:57.913Z,94.51
2022-08-19T04:48:49.597Z,94.42
2022-08-19T04:49:48.331Z,94.21
2022-08-19T04:50:48.318Z,93.91
2022-08-19T04:51:48.308Z,93.81
2022-08-19T04:52:48.342Z,93.81
2022-08-19T04:53:48.284Z,93.71
2022-08-19T04:54:48.271Z,93.62
2022-08-19T04:55:48.258Z,93.41
2022-08-19T04:56:48.247Z,93.11
2022-08-19T04:57:48.237Z,92.71
2022-08-19T04:58:48.199Z,92.61
2022-08-19T04:59:48.217Z,92.61
2022-08-19T05:00:48.282Z,92.71
2022-08-19T05:01:48.187Z,92.81
2022-08-19T05:02:48.155Z,92.61
2022-08-19T05:03:48.160Z,92.21
2022-08-19T05:04:48.181Z,92.01
2022-08-19T05:05:48.128Z,91.81
2022-08-19T05:06:48.118Z,91.81
2022-08-19T05:07:48.096Z,91.91
2022-08-19T05:08:48.079Z,92.01
2022-08-19T05:09:58.390Z,92.01
2022-08-19T05:10:48.093Z,91.81
2022-08-19T05:11:48.033Z,91.81
2022-08-19T05:12:48.017Z,91.81
2022-08-19T05:13:48.033Z,91.91
2022-08-19T05:14:48.003Z,92.01
2022-08-19T05:15:47.997Z,91.91
2022-08-19T05:16:48.021Z,92.01
2022-08-19T05:17:47.985Z,92.11
2022-08-19T05:18:47.945Z,92.01
2022-08-19T05:19:47.914Z,91.91
2022-08-19T05:20:47.915Z,91.81
2022-08-19T05:21:47.891Z,91.81
2022-08-19T05:22:48.003Z,91.91
2022-08-19T05:23:47.874Z,92.01
2022-08-19T05:25:11.347Z,92.01
2022-08-19T05:25:47.842Z,92.01
2022-08-19T05:26:47.841Z,92.01
2022-08-19T05:27:47.846Z,92.11
2022-08-19T05:28:48.958Z,92.21
2022-08-19T05:29:47.790Z,92.31
2022-08-19T05:30:47.842Z,92.27
2022-08-19T05:31:47.765Z,92.27
2022-08-19T05:32:47.881Z,92.07
2022-08-19T05:33:47.739Z,92.07
2022-08-19T05:34:47.730Z,92.07
2022-08-19T05:35:47.752Z,92.07
2022-08-19T05:36:47.707Z,92.07
2022-08-19T05:37:47.677Z,92.07
2022-08-19T05:38:47.701Z,91.97
2022-08-19T05:39:51.409Z,91.86
2022-08-19T05:40:47.657Z,91.86
2022-08-19T05:41:47.652Z,91.66
2022-08-19T05:42:55.093Z,91.56
2022-08-19T05:43:47.663Z,91.27
2022-08-19T05:44:47.594Z,91.27
2022-08-19T05:45:47.572Z,91.27
2022-08-19T05:46:47.570Z,91.16
2022-08-19T05:47:47.570Z,90.66
2022-08-19T05:48:47.552Z,90.77
2022-08-19T05:49:47.556Z,90.86
2022-08-19T05:50:47.514Z,90.56
2022-08-19T05:51:47.513Z,90.46
2022-08-19T05:52:50.251Z,90.36
2022-08-19T05:53:47.496Z,90.26
2022-08-19T05:54:48.327Z,90.16
2022-08-19T05:55:47.476Z,90.06
2022-08-19T05:56:47.425Z,89.86
2022-08-19T05:57:47.430Z,89.86
2022-08-19T05:58:47.404Z,89.86
2022-08-19T05:59:47.447Z,89.72
2022-08-19T06:00:47.386Z,89.72
2022-08-19T06:01:47.383Z,89.82
2022-08-19T06:02:47.561Z,89.82
2022-08-19T06:03:47.343Z,89.72
2022-08-19T06:04:47.317Z,89.66
2022-08-19T06:05:51.396Z,89.66
2022-08-19T06:06:47.339Z,89.62
2022-08-19T06:07:47.476Z,89.62
2022-08-19T06:08:47.272Z,89.76
2022-08-19T06:09:58.878Z,89.86
2022-08-19T06:10:47.241Z,89.96
2022-08-19T06:11:47.263Z,90.06
2022-08-19T06:12:47.223Z,90.26
2022-08-19T06:13:47.199Z,90.36
2022-08-19T06:14:47.221Z,90.36
2022-08-19T06:15:47.187Z,90.46
2022-08-19T06:16:47.205Z,90.56
2022-08-19T06:17:47.218Z,90.66
2022-08-19T06:18:47.162Z,90.16
2022-08-19T06:19:47.122Z,89.86
2022-08-19T06:21:00.258Z,89.16
2022-08-19T06:21:47.124Z,88.96
2022-08-19T06:22:47.097Z,88.96
2022-08-19T06:23:47.104Z,89.06
2022-08-19T06:24:47.090Z,88.16
2022-08-19T06:25:47.116Z,87.66
2022-08-19T06:28:14.182Z,86.85
2022-08-19T06:28:47.026Z,86.76
2022-08-19T06:29:47.025Z,85.55
2022-08-19T06:30:47.003Z,85.31
2022-08-19T06:31:46.966Z,85.01
2022-08-19T06:32:47.050Z,85.21
2022-08-19T06:33:46.970Z,85.21
2022-08-19T06:34:46.933Z,85.21
2022-08-19T06:35:46.938Z,85.11
2022-08-19T06:36:46.914Z,84.41
2022-08-19T06:37:46.957Z,84.41
2022-08-19T06:38:46.906Z,84.71
2022-08-19T06:39:46.975Z,84.81
2022-08-19T06:40:46.865Z,84.61
2022-08-19T06:41:51.507Z,84.21
2022-08-19T06:42:54.800Z,84.21
2022-08-19T06:43:46.852Z,83.91
2022-08-19T06:44:48.103Z,83.71
2022-08-19T06:45:46.807Z,83.41
2022-08-19T06:46:46.783Z,83.51
2022-08-19T06:47:46.769Z,83.41
2022-08-19T06:48:46.766Z,83.71
2022-08-19T06:49:46.785Z,83.67
2022-08-19T06:50:46.752Z,83.17
2022-08-19T06:51:46.723Z,83.17
2022-08-19T06:52:46.724Z,83.17
2022-08-19T06:53:47.093Z,83.07
2022-08-19T06:54:56.525Z,83.17
2022-08-19T06:55:46.707Z,83.27
2022-08-19T06:56:46.652Z,83.17
2022-08-19T06:57:46.638Z,83.17
2022-08-19T06:58:46.609Z,82.97
2022-08-19T06:59:46.609Z,83.07
2022-08-19T07:00:46.785Z,82.87
2022-08-19T07:01:46.648Z,82.77
2022-08-19T07:02:52.136Z,82.77
2022-08-19T07:03:46.571Z,82.77
2022-08-19T07:04:46.558Z,82.67
2022-08-19T07:05:47.245Z,82.97
2022-08-19T07:06:46.499Z,82.83
2022-08-19T07:07:47.666Z,82.63
2022-08-19T07:08:46.530Z,82.73
2022-08-19T07:09:58.350Z,83.13
2022-08-19T07:10:46.467Z,82.93
2022-08-19T07:11:46.490Z,82.43
2022-08-19T07:12:46.408Z,82.33
2022-08-19T07:13:46.404Z,82.73
2022-08-19T07:14:46.414Z,82.63
2022-08-19T07:15:46.400Z,82.53
2022-08-19T07:16:46.395Z,82.73
2022-08-19T07:17:52.529Z,83.03
2022-08-19T07:18:46.360Z,82.93
2022-08-19T07:19:46.349Z,83.13
2022-08-19T07:20:46.317Z,82.53
2022-08-19T07:21:46.343Z,82.83
2022-08-19T07:22:46.310Z,82.83
2022-08-19T07:23:46.284Z,82.83
2022-08-19T07:24:51.549Z,82.09
2022-08-19T07:25:52.471Z,81.49
2022-08-19T07:26:46.273Z,81.39
2022-08-19T07:27:46.527Z,81.59
2022-08-19T07:28:51.345Z,81.59
2022-08-19T07:29:46.204Z,81.29
2022-08-19T07:30:46.188Z,81.09
2022-08-19T07:31:46.164Z,80.69
2022-08-19T07:32:46.181Z,80.89
2022-08-19T07:33:46.153Z,81.29
2022-08-19T07:34:46.125Z,80.69
2022-08-19T07:35:46.107Z,80.89
2022-08-19T07:36:46.097Z,79.85
2022-08-19T07:37:46.139Z,79.75
2022-08-19T07:38:46.093Z,80.15
2022-08-19T07:39:46.151Z,79.96
2022-08-19T07:40:46.071Z,79.65
2022-08-19T07:41:46.062Z,80.02
2022-08-19T07:42:46.039Z,80.41
2022-08-19T07:43:46.033Z,80.11
2022-08-19T07:44:48.239Z,79.02
2022-08-19T07:45:46.015Z,78.81
2022-08-19T07:46:47.312Z,77.62
2022-08-19T07:47:50.228Z,77.22
2022-08-19T07:48:45.975Z,76.42
2022-08-19T07:49:45.948Z,76.82
2022-08-19T07:50:45.935Z,77.72
2022-08-19T07:51:45.906Z,77.51
2022-08-19T07:52:49.248Z,76.98
2022-08-19T07:53:45.882Z,76.48
2022-08-19T07:54:45.869Z,76.58
2022-08-19T07:55:45.891Z,76.68
2022-08-19T07:56:45.828Z,76.48
2022-08-19T07:57:45.830Z,76.68
2022-08-19T07:58:45.851Z,76.58
2022-08-19T07:59:45.820Z,76.88
2022-08-19T08:00:45.842Z,77.48
2022-08-19T08:01:45.794Z,77.18
2022-08-19T08:02:45.795Z,76.98
2022-08-19T08:03:45.780Z,76.68
2022-08-19T08:04:45.730Z,76.68
2022-08-19T08:05:45.758Z,77.38
2022-08-19T08:06:45.723Z,77.28
2022-08-19T08:07:46.329Z,77.18
2022-08-19T08:08:48.429Z,77.78
2022-08-19T08:09:49.530Z,77.58
2022-08-19T08:10:45.675Z,77.28
2022-08-19T08:11:45.639Z,77.38
2022-08-19T08:13:01.816Z,77.18
2022-08-19T08:13:45.620Z,77.14
2022-08-19T08:14:45.622Z,76.75
2022-08-19T08:15:45.596Z,76.54
2022-08-19T08:16:46.994Z,76.95
2022-08-19T08:17:48.724Z,77.04
2022-08-19T08:18:50.625Z,75.95
2022-08-19T08:19:45.572Z,75.45
2022-08-19T08:20:45.539Z,75.65
2022-08-19T08:21:45.506Z,75.65
2022-08-19T08:22:45.525Z,76.25
2022-08-19T08:23:45.545Z,75.25
2022-08-19T08:24:45.470Z,75.55
2022-08-19T08:25:45.488Z,75.25
2022-08-19T08:26:46.732Z,75.91
2022-08-19T08:27:45.440Z,75.01
2022-08-19T08:28:47.936Z,74.71
2022-08-19T08:29:45.423Z,75.11
2022-08-19T08:30:45.444Z,74.48
2022-08-19T08:31:45.405Z,74.48
2022-08-19T08:32:45.367Z,74.54
2022-08-19T08:33:45.391Z,74.01
2022-08-19T08:34:45.347Z,73.11
2022-08-19T08:35:45.335Z,72.71
2022-08-19T08:36:45.338Z,72.61
2022-08-19T08:37:45.294Z,71.81
2022-08-19T08:38:45.325Z,71.72
2022-08-19T08:39:45.334Z,71.72
2022-08-19T08:40:45.276Z,71.62
2022-08-19T08:41:45.249Z,71.72
2022-08-19T08:42:45.255Z,70.62
2022-08-19T08:43:45.251Z,70.72
2022-08-19T08:44:45.295Z,71.32
2022-08-19T08:45:45.213Z,71.32
2022-08-19T08:46:45.178Z,71.62
2022-08-19T08:47:45.156Z,71.75
2022-08-19T08:48:45.164Z,71.42
2022-08-19T08:49:45.172Z,71.42
2022-08-19T08:50:45.114Z,71.92
2022-08-19T08:51:45.188Z,70.92
2022-08-19T08:52:45.088Z,70.92
2022-08-19T08:53:45.097Z,71.02
2022-08-19T08:54:48.912Z,70.12
2022-08-19T08:55:45.103Z,70.19
2022-08-19T08:56:45.072Z,70.09
2022-08-19T08:57:45.047Z,69.36
2022-08-19T08:58:45.032Z,68.73
2022-08-19T08:59:45.028Z,69.29
2022-08-19T09:00:45.000Z,68.00
2022-08-19T09:01:45.015Z,67.77
2022-08-19T09:02:44.969Z,66.18
2022-08-19T09:03:44.969Z,66.15
2022-08-19T09:04:44.973Z,66.15
2022-08-19T09:05:48.662Z,65.85
2022-08-19T09:06:44.952Z,65.95
2022-08-19T09:07:47.366Z,66.78
2022-08-19T09:08:44.889Z,66.67
2022-08-19T09:09:44.883Z,67.18
2022-08-19T09:10:45.154Z,66.38
2022-08-19T09:11:44.970Z,64.89
2022-08-19T09:12:44.834Z,65.42
2022-08-19T09:13:44.846Z,66.21
2022-08-19T09:14:50.813Z,66.41
2022-08-19T09:15:44.848Z,66.21
2022-08-19T09:16:44.820Z,65.84
2022-08-19T09:17:44.779Z,65.64
2022-08-19T09:18:44.770Z,65.94
2022-08-19T09:19:44.749Z,66.84
2022-08-19T09:20:44.827Z,66.35
2022-08-19T09:21:44.721Z,66.24
2022-08-19T09:22:44.722Z,65.72
2022-08-19T09:23:44.726Z,64.52
2022-08-19T09:24:44.721Z,63.79
2022-08-19T09:25:44.698Z,62.87
2022-08-19T09:26:48.396Z,63.04
2022-08-19T09:27:44.646Z,61.75
2022-08-19T09:28:44.642Z,61.65
2022-08-19T09:29:44.622Z,61.25
2022-08-19T09:30:44.633Z,61.82
2022-08-19T09:31:44.647Z,61.52
2022-08-19T09:32:44.613Z,62.02
2022-08-19T09:33:44.604Z,62.02
2022-08-19T09:34:46.756Z,61.79
2022-08-19T09:35:53.140Z,60.86
2022-08-19T09:36:44.530Z,60.99
2022-08-19T09:37:44.542Z,60.40
2022-08-19T09:38:44.565Z,61.10
2022-08-19T09:39:44.539Z,61.52
2022-08-19T09:40:44.491Z,61.19
2022-08-19T09:41:47.647Z,60.96
2022-08-19T09:42:50.158Z,59.75
2022-08-19T09:43:48.058Z,59.65
2022-08-19T09:44:44.454Z,61.63
2022-08-19T09:45:44.410Z,59.72
2022-08-19T09:46:44.442Z,60.19
2022-08-19T09:47:44.403Z,58.60
2022-08-19T09:48:44.378Z,59.22
2022-08-19T09:49:44.423Z,58.92
2022-08-19T09:50:51.593Z,59.05
2022-08-19T09:51:46.888Z,59.88
2022-08-19T09:52:57.094Z,59.41
2022-08-19T09:53:44.328Z,60.40
2022-08-19T09:54:44.327Z,60.50
2022-08-19T09:55:44.286Z,60.89
2022-08-19T09:56:44.286Z,61.10
2022-08-19T09:57:44.255Z,62.15
2022-08-19T09:58:44.250Z,59.75
2022-08-19T09:59:44.223Z,59.75
2022-08-19T10:00:44.194Z,59.45
2022-08-19T10:01:44.233Z,59.65
2022-08-19T10:02:45.769Z,59.81
2022-08-19T10:03:44.188Z,58.92
2022-08-19T10:04:44.208Z,58.92
2022-08-19T10:05:44.172Z,57.97
2022-08-19T10:06:46.799Z,58.75
2022-08-19T10:07:44.114Z,58.53
2022-08-19T10:08:50.384Z,58.86
2022-08-19T10:09:44.097Z,58.16
2022-08-19T10:10:44.105Z,58.59
2022-08-19T10:11:51.180Z,58.86
2022-08-19T10:12:44.059Z,58.92
2022-08-19T10:13:44.059Z,58.53
2022-08-19T10:14:44.021Z,57.74
2022-08-19T10:15:47.725Z,58.73
2022-08-19T10:16:44.094Z,57.84
2022-08-19T10:17:47.591Z,58.75
2022-08-19T10:18:44.276Z,58.75
2022-08-19T10:19:43.993Z,59.08
2022-08-19T10:20:43.986Z,59.78
2022-08-19T10:21:43.940Z,59.28
2022-08-19T10:22:43.924Z,59.78
2022-08-19T10:23:43.937Z,59.41
2022-08-19T10:24:43.890Z,60.10
2022-08-19T10:25:43.886Z,59.93
2022-08-19T10:26:43.900Z,60.43
2022-08-19T10:27:46.552Z,60.20
2022-08-19T10:28:43.852Z,60.10
2022-08-19T10:29:46.376Z,60.00
2022-08-19T10:30:43.809Z,60.70
2022-08-19T10:31:59.707Z,60.00
2022-08-19T10:32:46.347Z,60.10
2022-08-19T10:33:53.985Z,61.10
2022-08-19T10:34:48.657Z,60.99
2022-08-19T10:35:56.390Z,60.50
2022-08-19T10:36:56.403Z,60.40
2022-08-19T10:37:57.003Z,60.10
2022-08-19T10:38:53.468Z,60.40
2022-08-19T10:39:43.747Z,60.99
2022-08-19T10:40:43.694Z,61.10
2022-08-19T10:41:43.669Z,60.60
2022-08-19T10:42:43.656Z,61.59
2022-08-19T10:43:43.682Z,61.66
2022-08-19T10:44:43.648Z,61.07
2022-08-19T10:45:52.177Z,60.86
2022-08-19T10:46:48.306Z,60.44
2022-08-19T10:47:43.601Z,59.45
2022-08-19T10:48:43.617Z,59.45
2022-08-19T10:49:43.571Z,59.48
2022-08-19T10:50:43.604Z,59.18
2022-08-19T10:51:48.023Z,59.38
2022-08-19T10:52:49.749Z,59.78
2022-08-19T10:53:43.537Z,60.17
2022-08-19T10:54:43.496Z,60.17
2022-08-19T10:55:43.509Z,60.47
2022-08-19T10:56:43.528Z,59.08
2022-08-19T10:58:01.715Z,59.80
2022-08-19T10:58:43.477Z,60.30
2022-08-19T10:59:43.486Z,60.10
2022-08-19T11:00:43.547Z,60.77
2022-08-19T11:01:43.480Z,61.56
2022-08-19T11:02:43.422Z,60.37
2022-08-19T11:03:43.446Z,60.77
2022-08-19T11:04:43.382Z,59.88
2022-08-19T11:05:43.376Z,59.97
2022-08-19T11:06:43.412Z,60.05
2022-08-19T11:07:43.365Z,60.34
2022-08-19T11:08:43.341Z,59.55
2022-08-19T11:09:43.394Z,59.92
2022-08-19T11:10:43.354Z,60.02
2022-08-19T11:11:43.322Z,59.92
2022-08-19T11:12:43.270Z,58.70
2022-08-19T11:13:43.267Z,59.39
2022-08-19T11:14:43.272Z,60.48
2022-08-19T11:15:43.262Z,57.81
2022-08-19T11:16:43.210Z,59.89
2022-08-19T11:17:43.250Z,59.39
2022-08-19T11:18:43.202Z,58.20
2022-08-19T11:19:43.184Z,58.23
2022-08-19T11:20:43.159Z,59.12
2022-08-19T11:21:43.152Z,59.05
2022-08-19T11:22:43.225Z,59.55
2022-08-19T11:23:43.128Z,60.05
2022-08-19T11:24:43.131Z,60.67
2022-08-19T11:25:43.097Z,61.56
2022-08-19T11:26:43.088Z,61.36
2022-08-19T11:27:43.153Z,60.37
2022-08-19T11:28:43.099Z,61.66
2022-08-19T11:29:43.071Z,60.17
2022-08-19T11:30:43.093Z,60.67
2022-08-19T11:31:43.052Z,60.17
2022-08-19T11:32:48.593Z,60.47
2022-08-19T11:33:47.675Z,61.13
2022-08-19T11:34:43.027Z,60.44
2022-08-19T11:35:43.057Z,59.35
2022-08-19T11:36:43.008Z,59.92
2022-08-19T11:37:43.008Z,59.12
2022-08-19T11:38:42.967Z,59.39
2022-08-19T11:39:43.034Z,59.39
2022-08-19T11:40:42.919Z,58.97
2022-08-19T11:41:42.903Z,58.18
2022-08-19T11:42:42.881Z,58.45
2022-08-19T11:43:42.878Z,58.15
2022-08-19T11:44:42.906Z,57.33
2022-08-19T11:45:42.872Z,58.51
2022-08-19T11:46:42.840Z,57.30
2022-08-19T11:47:42.814Z,57.10
2022-08-19T11:48:42.845Z,56.61
2022-08-19T11:49:42.840Z,56.31
2022-08-19T11:50:42.791Z,56.74
2022-08-19T11:51:42.782Z,56.74
2022-08-19T11:52:42.762Z,56.86
2022-08-19T11:53:42.742Z,56.67
2022-08-19T11:54:42.753Z,57.78
2022-08-19T11:55:43.408Z,57.88
2022-08-19T11:56:42.711Z,57.18
2022-08-19T11:57:42.722Z,55.51
2022-08-19T11:58:42.671Z,56.02
2022-08-19T11:59:42.697Z,56.42
2022-08-19T12:00:42.671Z,56.42
2022-08-19T12:01:42.628Z,56.42
2022-08-19T12:02:42.665Z,57.71
2022-08-19T12:03:42.642Z,56.55
2022-08-19T12:04:42.621Z,56.55
2022-08-19T12:05:42.652Z,56.65
2022-08-19T12:06:42.575Z,57.44
2022-08-19T12:07:42.569Z,57.67
2022-08-19T12:08:42.555Z,57.27
2022-08-19T12:09:42.669Z,55.98
2022-08-19T12:10:42.583Z,56.38
2022-08-19T12:11:42.534Z,56.15
2022-08-19T12:12:42.491Z,55.39
2022-08-19T12:13:42.499Z,55.88
2022-08-19T12:14:42.465Z,56.28
2022-08-19T12:15:42.476Z,56.48
2022-08-19T12:16:42.727Z,56.77
2022-08-19T12:17:42.451Z,57.17
2022-08-19T12:18:42.422Z,57.67
2022-08-19T12:19:42.445Z,55.68
2022-08-19T12:20:42.394Z,54.69
2022-08-19T12:21:42.385Z,55.36
2022-08-19T12:22:42.425Z,54.77
2022-08-19T12:23:42.351Z,54.77
2022-08-19T12:24:42.345Z,54.47
2022-08-19T12:25:42.369Z,53.45
2022-08-19T12:26:52.741Z,53.75
2022-08-19T12:27:44.535Z,53.75
2022-08-19T12:28:42.322Z,54.57
2022-08-19T12:29:42.268Z,55.06
2022-08-19T12:30:42.262Z,55.26
2022-08-19T12:31:42.280Z,55.76
2022-08-19T12:32:42.279Z,56.15
2022-08-19T12:33:42.219Z,57.07
2022-08-19T12:34:42.226Z,57.17
2022-08-19T12:35:45.563Z,56.18
2022-08-19T12:36:42.187Z,55.49
2022-08-19T12:37:42.205Z,55.58
2022-08-19T12:38:42.151Z,54.69
2022-08-19T12:39:42.173Z,55.85
2022-08-19T12:40:42.127Z,54.37
2022-08-19T12:41:51.227Z,54.07
2022-08-19T12:42:42.128Z,54.47
2022-08-19T12:43:42.097Z,54.67
2022-08-19T12:44:42.601Z,55.26
2022-08-19T12:45:42.073Z,55.56
2022-08-19T12:46:42.037Z,54.27
2022-08-19T12:47:42.994Z,53.58
2022-08-19T12:48:42.031Z,53.88
2022-08-19T12:49:54.591Z,54.35
2022-08-19T12:50:42.005Z,54.24
2022-08-19T12:51:42.038Z,52.76
2022-08-19T12:52:42.001Z,52.76
2022-08-19T12:53:41.965Z,52.83